Flight ASXE01

  • Submitted By: Rafal Piotrowski
  • Departure Airport: Warszawa Chopina (EPWA)
  • Arrival Airport: Gdansk im. Lecha Walesy (EPGD)
  • Aircraft: D8Q400 (SP-WOD)
  • Flight Time: 1.25
  • Date Submitted: 12/10/2015
  • Route: OLILA T270 RILAB L621 GRUDA N133 IRLUN
  • Status: Accepted
Flight Details
Gross Revenue:
(63 load / € 105.00 per unit
€ 6,615.00
Fuel Cost:
(3062 fuel used @ 0.45 / unit)
€ 1,377.90

Additional Log Information:

View Log

[2015/12/10 00:55:00]
Flight IATA:ASXE01
Pilot Number:ASX0102
Company ICAO:ASX
Aircraft Type:D8Q400
PAX:63
Aircraft Registration:SP-WOD
Departing Airport: EPWA
Destination Airport: EPGD
Alternate Airport:EPBY
Online: VATSIM
Route:OLILA T270 RILAB L621 GRUDA N133 IRLUN
Flight Level:20000
00:55 Zero fuel Weight: 46708 Lbs, Fuel Weight: 5853 Lbs
00:55 VATSIM:EPWA 100030Z 30009KT 6000 SCT005 BKN012 05/05 Q1032 TEMPO BKN005
00:55 VATSIM:EPGD 100030Z 28011KT 9999 FEW019 05/03 Q1031
01:18 Parking Brakes off
01:18 Com1 Freq=122.80
01:25 VR= 146 Knots
01:25 V2= 150 Knots
01:25 Take-off
01:25 Take off Weight: 52297 Lbs
01:25 Wind: 299? @ 006 Knots Heading: 290?
01:25 POS N52? 10? 02?? E020? 57? 40??
01:25 N11 05 N12 05
01:25 TOC
01:25 Fuel Weight: 5590 Lb
01:25 Flaps:1 at 151 Knots
01:25 Gear Up: 150 Knots
01:25 TOD
01:25 Fuel Weight: 5582 Lb
01:26 Flaps:0 at 161 Knots
01:35 TOC
01:35 Fuel Weight: 5063 Lb
01:40 Wind:313?@019 Knots Heading: 310? Ground Speed: 328 Knots Altitude 21194 ft
01:50 TOD
01:50 Fuel Weight: 4395 Lb
01:55 Wind:337?@026 Knots Heading: 019? Ground Speed: 239 Knots Altitude 15488 ft
02:08 Flaps:1 at 162 Knots
02:08 Flaps:2 at 158 Knots
02:09 Flaps:3 at 164 Knots
02:10 Wind:284?@022 Knots Heading: 280? Ground Speed: 158 Knots Altitude 2611 ft
02:11 Flaps:4 at 175 Knots
02:12 Gear Down: 164 Knots
02:20 Flaps:3 at 168 Knots
02:20 Gear Up: 170 Knots
02:20 Flaps:0 at 174 Knots
02:21 Flaps:1 at 209 Knots
02:23 Flaps:0 at 111 Knots
02:23 Flaps:1 at 145 Knots
02:23 Flaps:4 at 144 Knots
02:24 Flaps:0 at 77 Knots
02:25 Wind:291?@024 Knots Heading: 196? Ground Speed: 168 Knots Altitude 8129 ft
02:28 Flaps:4 at 155 Knots
02:30 Gear Down: 148 Knots
02:35 TOC
02:35 Fuel Weight: 2954 Lb
02:35 TouchDown:Rate-439 ft/min Speed: 116 Knots
02:35 VATSIM:EPGD 100200Z 26009KT 9999 SCT017 05/02 Q1031
02:35 Land
02:35 Wind:260?@009 Knots
02:35 Heading: 294?
02:35 Flight Duration: 01:10
02:35 Landing Weight: 49642 Lbs
02:35 POS N54? 22? 31?? E018? 28? 29??
02:43 Parking brakes on
02:43 Block to Block Duration: 01:25
02:43 Final Fuel: 2791 Lbls
02:43 Spent Fuel: 3062 Lbls
02:43 Flight Length: 268 NM
02:43 TOD Land Length: 149 NM

Route Map